Guildford, United Kingdom

10:37 AM BST on September 04, 2015 (GMT +0100)
Chilworth | | Change Station
CLOSE
Current Station
Personal Weather Station
Location: Chilworth,
Elevation: 157 ft
Nearby Weather Stations

Elev 157 ft 51.21 °N, 0.55 °W | Updated 4 seconds ago

Scattered Clouds
Scattered Clouds
58.6 °F
Feels Like 58.6 °F
N
3.1
Wind Variable Wind from SW
Gusts 4.5 mph

Today
High -- | Low -- °F
--% Chance of Precip.
Yesterday
High -- | Low -- °F
Precip. -- in
6:19 AM 7:42 PM
Waning Gibbous, 61% visible
Pressure 30.06 in
Visibility 6.2 miles
Clouds Scattered Clouds 1300 ft
Dew Point 51 °F
Humidity 76%
Rainfall 0.00 in
Snow Depth Not available.
UV 3 out of 12
Pollen Not available.
Air Quality Not available.
Flu Activity Not available.
METAR EGLF 040920Z 29006KT 250V320 9999 SCT013 13/10 Q1018
Pressure 30.06 in
Visibility 6.2 miles
Clouds Scattered Clouds 1300 ft
Dew Point 51 °F
Humidity 76%
Rainfall 0.00 in
Snow Depth Not available.
UV 3 out of 12
Pollen Not available.
Air Quality Not available.
Flu Activity Not available.
METAR EGLF 040920Z 29006KT 250V320 9999 SCT013 13/10 Q1018

10-Day Weather Forecast

×

Almanac

Astronomy

Sep. 04, 2015 Rise Set
Actual Time
Civil Twilight
Nautical Twilight
Astronomical Twilight
Moon
Length of Visible Light
Length of Day
Tomorrow will be .
, % of the Moon is Illuminated

Today's Extremes

Country Highs Country Lows

Community

WunderPhotos

Upload Photos

1,852,142 photos uploaded!

WunderBlogs® & News

Nearby

Air Quality

  Air Quality AQ Index Pollutant
Not available.

Snow Depth

Station Depth Elevation

Earthquake Activity

City Distance Mag. Time & Date
Minimum magnitude displayed is 2.5.

Coastal Water Temperatures

Place Temperature

Stations

Nearby Weather Stations

Station Location Temp. Windchill Dew Point Humidity Wind Precip. Elev Updated Type